createdAt,value
2018-11-29T00:02:11.683Z,153.47
2018-11-29T00:04:41.301Z,173.03
2018-11-29T00:07:10.900Z,165.43
2018-11-29T00:09:40.692Z,173.17
2018-11-29T00:12:10.281Z,147.27
2018-11-29T00:14:39.897Z,150.77
2018-11-29T00:17:09.533Z,142.87
2018-11-29T00:19:39.201Z,148.00
2018-11-29T00:22:08.932Z,132.90
2018-11-29T00:24:38.545Z,126.43
2018-11-29T00:27:08.229Z,129.27
2018-11-29T00:29:37.936Z,128.00
2018-11-29T00:32:07.556Z,117.53
2018-11-29T00:34:37.183Z,135.63
2018-11-29T00:37:07.402Z,129.60
2018-11-29T00:39:36.754Z,120.17
2018-11-29T00:42:06.464Z,133.03
2018-11-29T00:44:36.057Z,124.07
2018-11-29T00:47:08.864Z,120.67
2018-11-29T00:49:38.421Z,139.23
2018-11-29T00:52:08.094Z,124.07
2018-11-29T00:54:37.681Z,119.47
2018-11-29T00:57:07.615Z,113.90
2018-11-29T00:59:37.299Z,112.10
2018-11-29T01:02:07.018Z,111.67
2018-11-29T01:04:36.572Z,106.40
2018-11-29T01:07:06.375Z,110.63
2018-11-29T01:09:36.003Z,99.50
2018-11-29T01:12:06.213Z,104.53
2018-11-29T01:14:35.821Z,99.00
2018-11-29T01:17:05.469Z,93.10
2018-11-29T01:19:35.102Z,96.07
2018-11-29T01:22:04.842Z,109.67
2018-11-29T01:24:34.493Z,92.33
2018-11-29T01:27:04.200Z,106.23
2018-11-29T01:29:33.797Z,97.53
2018-11-29T01:32:03.354Z,102.57
2018-11-29T01:34:33.038Z,99.97
2018-11-29T01:37:02.655Z,97.30
2018-11-29T01:39:32.193Z,100.77
2018-11-29T01:42:02.092Z,96.47
2018-11-29T01:44:31.695Z,100.47
2018-11-29T01:47:01.296Z,104.33
2018-11-29T01:49:30.816Z,99.07
2018-11-29T01:52:00.434Z,96.23
2018-11-29T01:54:29.976Z,79.77
2018-11-29T01:56:59.545Z,93.90
2018-11-29T01:59:29.195Z,93.80
2018-11-29T02:01:58.875Z,81.80
2018-11-29T02:04:29.595Z,87.13
2018-11-29T02:06:59.119Z,93.70
2018-11-29T02:09:28.656Z,82.80
2018-11-29T02:11:58.294Z,81.97
2018-11-29T02:14:27.931Z,76.03
2018-11-29T02:16:57.503Z,84.87
2018-11-29T02:19:27.135Z,87.73
2018-11-29T02:21:56.852Z,91.30
2018-11-29T02:24:26.395Z,87.63
2018-11-29T02:26:56.062Z,85.47
2018-11-29T02:29:25.601Z,81.83
2018-11-29T02:31:55.203Z,80.03
2018-11-29T02:34:25.435Z,85.30
2018-11-29T02:36:55.003Z,85.63
2018-11-29T02:39:24.560Z,88.23
2018-11-29T02:41:54.212Z,92.63
2018-11-29T02:44:23.811Z,84.97
2018-11-29T02:46:53.508Z,74.27
2018-11-29T02:49:23.231Z,62.87
2018-11-29T02:51:53.104Z,76.83
2018-11-29T02:54:22.675Z,77.17
2018-11-29T02:56:52.802Z,76.67
2018-11-29T02:59:22.382Z,86.83
2018-11-29T03:01:51.952Z,79.37
2018-11-29T03:04:21.573Z,91.43
2018-11-29T03:06:51.133Z,66.00
2018-11-29T03:09:20.789Z,80.20
2018-11-29T03:11:50.404Z,70.23
2018-11-29T03:14:19.984Z,84.10
2018-11-29T03:16:49.702Z,74.80
2018-11-29T03:19:19.338Z,74.30
2018-11-29T03:21:48.902Z,79.53
2018-11-29T03:24:18.448Z,78.20
2018-11-29T03:26:48.131Z,77.87
2018-11-29T03:29:17.743Z,80.87
2018-11-29T03:31:47.305Z,75.60
2018-11-29T03:34:16.943Z,74.80
2018-11-29T03:36:46.496Z,73.47
2018-11-29T03:39:16.160Z,80.07
2018-11-29T03:41:45.792Z,68.57
2018-11-29T03:44:15.358Z,70.20
2018-11-29T03:46:44.919Z,72.77
2018-11-29T03:49:14.483Z,71.97
2018-11-29T03:51:44.099Z,65.37
2018-11-29T03:54:13.724Z,76.13
2018-11-29T03:56:43.399Z,74.60
2018-11-29T03:59:12.973Z,68.27
2018-11-29T04:01:42.540Z,66.63
2018-11-29T04:04:12.220Z,66.93
2018-11-29T04:06:41.818Z,64.97
2018-11-29T04:09:11.965Z,71.40
2018-11-29T04:11:41.648Z,67.53
2018-11-29T04:14:11.256Z,66.80
2018-11-29T04:16:40.843Z,63.63
2018-11-29T04:19:10.483Z,69.70
2018-11-29T04:21:40.056Z,57.80
2018-11-29T04:24:09.646Z,67.67
2018-11-29T04:26:39.374Z,65.43
2018-11-29T04:29:08.991Z,62.17
2018-11-29T04:31:38.566Z,73.73
2018-11-29T04:34:08.272Z,60.73
2018-11-29T04:36:37.842Z,64.27
2018-11-29T04:39:08.864Z,63.00
2018-11-29T04:41:38.424Z,61.37
2018-11-29T04:44:07.985Z,65.93
2018-11-29T04:46:44.673Z,66.83
2018-11-29T04:49:14.473Z,49.87
2018-11-29T04:51:44.140Z,63.73
2018-11-29T04:54:13.792Z,67.27
2018-11-29T04:56:43.391Z,69.93
2018-11-29T04:59:13.018Z,61.07
2018-11-29T05:01:42.671Z,67.97
2018-11-29T05:04:12.325Z,68.50
2018-11-29T05:06:41.856Z,64.57
2018-11-29T05:09:11.582Z,64.87
2018-11-29T05:11:41.293Z,74.43
2018-11-29T05:14:13.964Z,80.30
2018-11-29T05:16:43.680Z,75.27
2018-11-29T05:19:13.339Z,73.30
2018-11-29T05:21:43.053Z,77.47
2018-11-29T05:24:12.698Z,74.57
2018-11-29T05:26:42.294Z,74.60
2018-11-29T05:29:12.011Z,64.27
2018-11-29T05:31:41.562Z,60.87
2018-11-29T05:34:11.329Z,66.90
2018-11-29T05:36:40.891Z,69.07
2018-11-29T05:39:13.601Z,70.90
2018-11-29T05:41:43.321Z,63.90
2018-11-29T05:44:13.415Z,69.47
2018-11-29T05:46:43.132Z,74.50
2018-11-29T05:49:12.763Z,83.30
2018-11-29T05:51:42.365Z,70.70
2018-11-29T05:54:12.061Z,62.57
2018-11-29T05:56:41.671Z,72.37
2018-11-29T05:59:11.315Z,70.07
2018-11-29T06:01:43.332Z,70.87
2018-11-29T06:04:13.203Z,62.97
2018-11-29T06:10:20.862Z,80.87
2018-11-29T06:12:50.569Z,67.03
2018-11-29T06:15:20.175Z,80.87
2018-11-29T06:17:49.992Z,76.50
2018-11-29T06:20:20.632Z,72.33
2018-11-29T06:22:50.321Z,71.27
2018-11-29T06:25:19.964Z,64.13
2018-11-29T06:27:49.632Z,70.57
2018-11-29T06:30:22.083Z,73.40
2018-11-29T06:32:52.923Z,69.27
2018-11-29T06:35:22.544Z,74.87
2018-11-29T06:37:52.152Z,59.07
2018-11-29T06:40:21.858Z,71.80
2018-11-29T06:42:51.573Z,71.17
2018-11-29T06:45:22.292Z,65.93
2018-11-29T06:47:53.089Z,68.37
2018-11-29T06:50:22.913Z,62.47
2018-11-29T06:52:53.378Z,59.77
2018-11-29T06:55:24.627Z,60.50
2018-11-29T06:57:54.898Z,66.07
2018-11-29T07:00:29.267Z,61.30
2018-11-29T07:02:58.905Z,67.10
2018-11-29T07:05:28.669Z,55.23
2018-11-29T07:07:58.429Z,56.13
2018-11-29T07:10:32.014Z,71.47
2018-11-29T07:13:02.384Z,60.80
2018-11-29T07:15:32.141Z,61.17
2018-11-29T07:18:02.456Z,51.33
2018-11-29T07:20:32.064Z,65.13
2018-11-29T07:23:01.944Z,51.83
2018-11-29T07:25:31.861Z,59.30
2018-11-29T07:28:02.092Z,52.10
2018-11-29T07:30:31.790Z,57.13
2018-11-29T07:33:01.693Z,55.00
2018-11-29T07:35:31.316Z,51.97
2018-11-29T07:38:01.144Z,64.80
2018-11-29T07:40:30.830Z,59.53
2018-11-29T07:43:00.459Z,53.40
2018-11-29T07:45:30.233Z,60.83
2018-11-29T07:48:00.248Z,56.27
2018-11-29T07:50:30.091Z,53.17
2018-11-29T07:53:00.187Z,49.07
2018-11-29T07:55:29.988Z,53.37
2018-11-29T07:58:01.387Z,49.87
2018-11-29T08:00:30.975Z,54.70
2018-11-29T08:03:01.039Z,56.33
2018-11-29T08:05:30.741Z,56.27
2018-11-29T08:08:00.702Z,47.10
2018-11-29T08:10:31.033Z,47.00
2018-11-29T08:13:00.615Z,57.57
2018-11-29T08:15:30.326Z,55.70
2018-11-29T08:17:59.971Z,51.40
2018-11-29T08:20:29.547Z,52.43
2018-11-29T08:22:59.235Z,51.53
2018-11-29T08:25:28.805Z,50.80
2018-11-29T08:27:58.452Z,48.10
2018-11-29T08:30:28.048Z,44.27
2018-11-29T08:32:57.772Z,57.97
2018-11-29T08:35:27.883Z,52.17
2018-11-29T08:37:57.480Z,49.27
2018-11-29T08:40:27.183Z,46.07
2018-11-29T08:42:56.771Z,50.90
2018-11-29T08:45:26.400Z,44.70
2018-11-29T08:47:56.007Z,54.07
2018-11-29T08:50:25.724Z,51.33
2018-11-29T08:52:55.422Z,53.57
2018-11-29T08:55:25.027Z,47.03
2018-11-29T08:57:54.654Z,49.80
2018-11-29T09:00:25.245Z,47.83
2018-11-29T09:02:54.888Z,51.53
2018-11-29T09:05:25.635Z,49.27
2018-11-29T09:07:55.318Z,46.40
2018-11-29T09:10:31.334Z,47.53
2018-11-29T09:12:54.931Z,50.37
2018-11-29T09:15:24.641Z,46.77
2018-11-29T09:17:54.352Z,45.67
2018-11-29T09:20:25.495Z,43.63
2018-11-29T09:22:55.201Z,37.63
2018-11-29T09:25:24.800Z,53.05
2018-11-29T09:27:54.384Z,44.37
2018-11-29T09:30:24.849Z,48.37
2018-11-29T09:32:55.355Z,46.33
2018-11-29T09:35:25.071Z,43.47
2018-11-29T09:37:57.636Z,44.93
2018-11-29T09:40:28.180Z,55.70
2018-11-29T09:42:57.779Z,40.83
2018-11-29T09:45:27.426Z,42.87
2018-11-29T09:47:57.599Z,42.70
2018-11-29T09:50:27.815Z,40.37
2018-11-29T09:52:57.522Z,43.67
2018-11-29T09:55:27.066Z,46.23
2018-11-29T09:57:56.617Z,46.03
2018-11-29T10:00:28.993Z,41.93
2018-11-29T10:03:11.622Z,44.20
2018-11-29T10:05:46.594Z,47.30
2018-11-29T10:08:17.949Z,44.70
2018-11-29T10:10:47.598Z,42.07
2018-11-29T10:13:17.214Z,50.00
2018-11-29T10:15:46.931Z,51.87
2018-11-29T10:18:16.722Z,44.50
2018-11-29T10:20:46.439Z,48.97
2018-11-29T10:23:16.351Z,49.40
2018-11-29T10:25:45.943Z,43.37
2018-11-29T10:28:17.084Z,51.33
2018-11-29T10:30:58.981Z,48.60
2018-11-29T10:33:28.546Z,37.67
2018-11-29T10:36:04.190Z,51.30
2018-11-29T10:38:33.842Z,49.20
2018-11-29T10:41:03.453Z,44.87
2018-11-29T10:43:33.062Z,42.80
2018-11-29T10:46:05.612Z,47.10
2018-11-29T10:48:35.456Z,42.60
2018-11-29T10:51:05.463Z,45.00
2018-11-29T10:53:37.679Z,45.87
2018-11-29T10:56:04.850Z,47.37
2018-11-29T10:58:35.356Z,35.37
2018-11-29T11:01:09.313Z,44.70
2018-11-29T11:03:39.943Z,45.10
2018-11-29T11:06:09.546Z,39.93
2018-11-29T11:08:39.166Z,42.90
2018-11-29T11:11:09.078Z,45.40
2018-11-29T11:13:39.275Z,38.17
2018-11-29T11:16:09.926Z,44.80
2018-11-29T11:18:42.755Z,43.73
2018-11-29T11:21:12.341Z,44.47
2018-11-29T11:23:41.994Z,40.93
2018-11-29T11:26:11.533Z,46.63
2018-11-29T11:28:41.154Z,47.37
2018-11-29T11:31:10.723Z,43.40
2018-11-29T11:33:40.324Z,45.30
2018-11-29T11:36:13.045Z,47.70
2018-11-29T11:38:42.628Z,45.23
2018-11-29T11:41:12.285Z,45.17
2018-11-29T11:43:42.114Z,46.17
2018-11-29T11:46:11.818Z,46.67
2018-11-29T11:48:41.549Z,49.37
2018-11-29T11:51:11.263Z,51.53
2018-11-29T11:53:40.871Z,42.33
2018-11-29T11:56:13.437Z,47.60
2018-11-29T11:58:43.046Z,46.80
2018-11-29T12:01:12.640Z,45.80
2018-11-29T12:03:42.825Z,46.47
2018-11-29T12:06:12.468Z,49.17
2018-11-29T12:08:45.152Z,47.47
2018-11-29T12:11:14.790Z,47.13
2018-11-29T12:13:44.374Z,51.60
2018-11-29T12:16:14.144Z,49.23
2018-11-29T12:18:43.671Z,47.77
2018-11-29T12:21:13.253Z,48.37
2018-11-29T12:23:42.867Z,45.47
2018-11-29T12:26:12.474Z,49.70
2018-11-29T12:28:42.100Z,50.40
2018-11-29T12:31:11.674Z,51.07
2018-11-29T12:33:41.170Z,42.30
2018-11-29T12:36:10.786Z,49.17
2018-11-29T12:38:40.417Z,42.40
2018-11-29T12:41:10.129Z,47.90
2018-11-29T12:43:39.839Z,44.23
2018-11-29T12:46:09.542Z,45.93
2018-11-29T12:48:39.050Z,48.57
2018-11-29T12:51:08.620Z,49.90
2018-11-29T12:53:38.183Z,48.80
2018-11-29T12:56:08.980Z,41.27
2018-11-29T12:58:38.588Z,43.97
2018-11-29T13:01:08.181Z,49.03
2018-11-29T13:03:37.803Z,46.63
2018-11-29T13:06:08.002Z,46.90
2018-11-29T13:08:37.529Z,47.93
2018-11-29T13:11:10.678Z,45.90
2018-11-29T13:13:36.842Z,52.50
2018-11-29T13:16:06.789Z,47.90
2018-11-29T13:18:36.379Z,57.40
2018-11-29T13:21:05.966Z,56.03
2018-11-29T13:23:35.523Z,48.97
2018-11-29T13:26:05.179Z,48.27
2018-11-29T13:28:34.810Z,50.63
2018-11-29T13:31:04.396Z,57.55
2018-11-29T13:33:33.994Z,53.17
2018-11-29T13:36:03.632Z,48.77
2018-11-29T13:38:33.192Z,50.50
2018-11-29T13:41:03.063Z,47.60
2018-11-29T13:43:32.692Z,43.53
2018-11-29T13:46:02.268Z,38.90
2018-11-29T13:48:31.822Z,51.83
2018-11-29T13:51:01.502Z,48.97
2018-11-29T13:53:31.176Z,46.60
2018-11-29T13:56:00.783Z,55.73
2018-11-29T13:58:30.336Z,53.33
2018-11-29T14:00:59.962Z,48.90
2018-11-29T14:03:29.593Z,49.67
2018-11-29T14:05:59.172Z,58.30
2018-11-29T14:08:28.875Z,51.03
2018-11-29T14:10:58.538Z,54.53
2018-11-29T14:13:28.089Z,50.83
2018-11-29T14:15:57.776Z,55.13
2018-11-29T14:18:27.316Z,54.83
2018-11-29T14:20:57.012Z,55.83
2018-11-29T14:23:26.816Z,50.40
2018-11-29T14:25:56.423Z,55.30
2018-11-29T14:28:25.955Z,60.40
2018-11-29T14:30:55.536Z,61.53
2018-11-29T14:33:25.198Z,64.73
2018-11-29T14:35:54.948Z,60.50
2018-11-29T14:38:24.559Z,54.10
2018-11-29T14:40:54.127Z,53.57
2018-11-29T14:43:23.778Z,61.67
2018-11-29T14:45:53.341Z,67.27
2018-11-29T14:48:23.381Z,54.93
2018-11-29T14:50:53.052Z,53.57
2018-11-29T14:53:22.624Z,62.57
2018-11-29T14:55:52.409Z,58.77
2018-11-29T14:58:22.111Z,52.77
2018-11-29T15:00:51.906Z,58.27
2018-11-29T15:03:23.349Z,57.40
2018-11-29T15:05:53.038Z,56.70
2018-11-29T15:08:22.670Z,50.80
2018-11-29T15:10:52.393Z,62.60
2018-11-29T15:13:22.104Z,56.33
2018-11-29T15:15:51.945Z,66.87
2018-11-29T15:18:21.787Z,62.13
2018-11-29T15:20:51.534Z,55.70
2018-11-29T15:23:21.825Z,58.50
2018-11-29T15:25:51.562Z,63.53
2018-11-29T15:28:21.388Z,66.87
2018-11-29T15:30:51.084Z,55.30
2018-11-29T15:33:20.943Z,73.37
2018-11-29T15:35:50.823Z,69.37
2018-11-29T15:38:20.618Z,68.73
2018-11-29T15:40:50.374Z,72.23
2018-11-29T15:43:20.066Z,61.30
2018-11-29T15:45:49.852Z,59.47
2018-11-29T15:48:19.516Z,70.37
2018-11-29T15:50:49.158Z,62.23
2018-11-29T15:53:19.260Z,59.70
2018-11-29T15:55:48.883Z,65.17
2018-11-29T15:58:18.589Z,63.90
2018-11-29T16:00:48.226Z,67.70
2018-11-29T16:03:18.116Z,65.80
2018-11-29T16:05:48.638Z,56.50
2018-11-29T16:08:18.169Z,67.10
2018-11-29T16:10:47.959Z,66.37
2018-11-29T16:13:17.743Z,63.10
2018-11-29T16:15:47.368Z,54.13
2018-11-29T16:18:17.282Z,59.30
2018-11-29T16:20:47.446Z,61.17
2018-11-29T16:23:17.306Z,65.30
2018-11-29T16:25:47.021Z,63.13
2018-11-29T16:28:16.902Z,63.63
2018-11-29T16:30:49.621Z,65.83
2018-11-29T16:33:30.203Z,65.57
2018-11-29T16:36:00.163Z,68.93
2018-11-29T16:38:29.793Z,67.13
2018-11-29T16:40:59.498Z,67.70
2018-11-29T16:43:29.308Z,60.87
2018-11-29T16:45:59.015Z,65.53
2018-11-29T16:48:28.646Z,65.20
2018-11-29T16:50:58.643Z,64.23
2018-11-29T16:53:28.352Z,67.17
2018-11-29T16:55:58.060Z,64.23
2018-11-29T16:58:30.016Z,71.07
2018-11-29T17:00:59.667Z,74.23
2018-11-29T17:03:29.326Z,70.40
2018-11-29T17:05:59.023Z,67.77
2018-11-29T17:08:28.966Z,64.03
2018-11-29T17:10:58.758Z,69.80
2018-11-29T17:13:28.593Z,71.87
2018-11-29T17:15:58.348Z,66.00
2018-11-29T17:18:28.090Z,72.83
2018-11-29T17:20:57.905Z,63.93
2018-11-29T17:23:27.711Z,67.03
2018-11-29T17:25:57.507Z,88.60
2018-11-29T17:28:27.443Z,66.03
2018-11-29T17:30:57.254Z,72.73
2018-11-29T17:33:27.262Z,72.00
2018-11-29T17:35:57.066Z,71.37
2018-11-29T17:38:26.736Z,74.67
2018-11-29T17:40:56.428Z,79.10
2018-11-29T17:43:26.016Z,77.60
2018-11-29T17:45:55.777Z,80.73
2018-11-29T17:48:25.407Z,80.87
2018-11-29T17:50:55.073Z,72.40
2018-11-29T17:53:24.890Z,74.60
2018-11-29T17:55:54.768Z,83.17
2018-11-29T17:58:24.565Z,82.83
2018-11-29T18:00:54.327Z,83.87
2018-11-29T18:03:24.366Z,85.50
2018-11-29T18:05:54.076Z,81.80
2018-11-29T18:08:24.091Z,82.50
2018-11-29T18:10:57.411Z,84.80
2018-11-29T18:13:31.671Z,89.53
2018-11-29T18:16:01.499Z,90.43
2018-11-29T18:18:31.591Z,82.77
2018-11-29T18:21:01.431Z,100.43
2018-11-29T18:23:31.459Z,95.10
2018-11-29T18:26:01.201Z,86.57
2018-11-29T18:28:31.020Z,86.63
2018-11-29T18:31:01.851Z,87.07
2018-11-29T18:33:31.703Z,97.03
2018-11-29T18:36:01.456Z,89.37
2018-11-29T18:38:31.338Z,89.63
2018-11-29T18:41:01.796Z,85.57
2018-11-29T18:43:31.550Z,90.63
2018-11-29T18:46:05.462Z,84.87
2018-11-29T18:48:35.350Z,86.17
2018-11-29T18:51:06.020Z,99.20
2018-11-29T18:53:36.620Z,83.73
2018-11-29T18:56:10.601Z,91.73
2018-11-29T18:58:41.505Z,93.70
2018-11-29T19:01:14.305Z,103.83
2018-11-29T19:03:45.145Z,99.50
2018-11-29T19:06:18.152Z,100.07
2018-11-29T19:08:55.692Z,83.13
2018-11-29T19:11:28.457Z,87.53
2018-11-29T19:13:58.847Z,76.57
2018-11-29T19:16:33.222Z,84.33
2018-11-29T19:19:03.163Z,73.80
2018-11-29T19:21:33.570Z,88.03
2018-11-29T19:24:03.569Z,83.57
2018-11-29T19:26:34.502Z,78.23
2018-11-29T19:29:07.475Z,80.57
2018-11-29T19:31:37.251Z,85.03
2018-11-29T19:34:07.713Z,83.13
2018-11-29T19:36:39.290Z,77.17
2018-11-29T19:39:10.003Z,87.33
2018-11-29T19:41:40.123Z,81.13
2018-11-29T19:44:11.476Z,76.47
2018-11-29T19:46:41.202Z,74.63
2018-11-29T19:49:11.210Z,81.33
2018-11-29T19:51:41.165Z,85.77
2018-11-29T19:54:14.647Z,83.77
2018-11-29T19:56:45.951Z,70.27
2018-11-29T19:59:15.853Z,81.80
2018-11-29T20:01:46.487Z,67.50
2018-11-29T20:04:17.008Z,75.13
2018-11-29T20:06:47.726Z,74.30
2018-11-29T20:09:17.596Z,82.97
2018-11-29T20:11:51.823Z,79.47
2018-11-29T20:14:21.797Z,77.53
2018-11-29T20:16:56.420Z,78.10
2018-11-29T20:19:27.753Z,79.57
2018-11-29T20:21:57.707Z,68.87
2018-11-29T20:24:28.285Z,77.33
2018-11-29T20:27:01.181Z,73.73
2018-11-29T20:29:31.198Z,69.33
2018-11-29T20:32:03.227Z,74.13
2018-11-29T20:34:34.127Z,83.73
2018-11-29T20:37:04.852Z,80.40
2018-11-29T20:39:35.560Z,80.50
2018-11-29T20:42:06.310Z,80.20
2018-11-29T20:44:36.810Z,68.23
2018-11-29T20:47:10.762Z,86.65
2018-11-29T20:49:40.421Z,76.70
2018-11-29T20:52:10.139Z,80.35
2018-11-29T20:54:39.835Z,77.60
2018-11-29T20:57:09.344Z,65.47
2018-11-29T20:59:42.092Z,72.23
2018-11-29T21:02:11.746Z,75.07
2018-11-29T21:04:41.332Z,75.23
2018-11-29T21:07:11.051Z,70.50
2018-11-29T21:09:40.728Z,71.97
2018-11-29T21:12:10.460Z,65.70
2018-11-29T21:14:40.178Z,75.43
2018-11-29T21:17:09.848Z,75.37
2018-11-29T21:19:39.488Z,83.47
2018-11-29T21:22:09.187Z,83.60
2018-11-29T21:24:39.752Z,82.30
2018-11-29T21:27:09.941Z,79.77
2018-11-29T21:29:39.951Z,71.73
2018-11-29T21:32:10.066Z,73.80
2018-11-29T21:34:39.842Z,73.53
2018-11-29T21:37:09.426Z,69.23
2018-11-29T21:43:57.543Z,75.27
2018-11-29T21:46:27.569Z,73.50
2018-11-29T21:48:57.270Z,73.73
2018-11-29T21:51:27.283Z,70.53
2018-11-29T21:53:57.192Z,68.87
2018-11-29T21:56:26.945Z,66.47
2018-11-29T21:58:56.802Z,74.33
2018-11-29T22:01:26.977Z,75.77
2018-11-29T22:03:57.057Z,71.57
2018-11-29T22:06:27.063Z,69.33
2018-11-29T22:08:56.878Z,68.30
2018-11-29T22:11:27.312Z,76.80
2018-11-29T22:13:57.528Z,74.30
2018-11-29T22:16:27.324Z,72.13
2018-11-29T22:18:57.159Z,70.10
2018-11-29T22:21:26.956Z,70.83
2018-11-29T22:23:56.947Z,75.53
2018-11-29T22:26:27.092Z,71.90
2018-11-29T22:28:56.831Z,69.63
2018-11-29T22:31:26.599Z,70.77
2018-11-29T22:33:56.586Z,64.50
2018-11-29T22:36:26.296Z,65.20
2018-11-29T22:38:56.137Z,82.50
2018-11-29T22:41:25.703Z,75.97
2018-11-29T22:43:55.390Z,72.27
2018-11-29T22:46:25.200Z,64.53
2018-11-29T22:48:54.890Z,66.17
2018-11-29T22:51:24.681Z,73.87
2018-11-29T22:53:54.935Z,71.00
2018-11-29T22:56:24.707Z,62.33
2018-11-29T22:58:54.344Z,60.40
2018-11-29T23:01:28.974Z,66.90
2018-11-29T23:03:58.759Z,71.57
2018-11-29T23:06:28.522Z,54.63
2018-11-29T23:08:58.167Z,64.90
2018-11-29T23:11:28.361Z,59.33
2018-11-29T23:13:58.300Z,58.23
2018-11-29T23:16:27.938Z,59.70
2018-11-29T23:18:57.713Z,56.63
2018-11-29T23:21:28.864Z,52.23
2018-11-29T23:23:58.523Z,50.87
2018-11-29T23:26:28.334Z,45.00
2018-11-29T23:28:58.464Z,53.93
2018-11-29T23:31:28.208Z,49.80
2018-11-29T23:33:57.811Z,50.40
2018-11-29T23:36:27.474Z,53.43
2018-11-29T23:38:57.532Z,52.13
2018-11-29T23:41:27.342Z,44.53
2018-11-29T23:43:57.051Z,52.57
2018-11-29T23:46:26.644Z,46.03
2018-11-29T23:48:56.232Z,43.30
2018-11-29T23:51:25.966Z,38.00
2018-11-29T23:53:55.672Z,47.83
2018-11-29T23:56:25.275Z,47.20
2018-11-29T23:58:54.901Z,45.80
